Time;durP1;ratioP1;P1;durP2;ratioP2;P2;SDS_P1;SDS_P2;PMS_P1;PMS_P2;Temp;Humidity;BMP_temperature;BMP_pressure;BME280_temperature;BME280_humidity;BME280_pressure;Samples;Min_cycle;Max_cycle;Signal;HPM_P1;HPM_P2
2022/12/02 00:01:04;;;;;;;;;33.00;26.50;;;;;8.12;63.33;101995.44;5034264;28;45732;-67
2022/12/02 00:03:34;;;;;;;;;38.25;32.00;;;;;8.13;63.47;101989.38;5036623;28;45555;-66
2022/12/02 00:05:59;;;;;;;;;41.25;34.50;;;;;8.12;63.43;101983.28;5041064;28;45442;-65
2022/12/02 00:08:29;;;;;;;;;36.75;30.25;;;;;8.10;63.38;101982.34;5040799;28;45548;-74
2022/12/02 00:10:57;;;;;;;;;51.75;39.00;;;;;8.05;63.94;101969.16;5059409;28;45584;-71
2022/12/02 00:13:30;;;;;;;;;42.75;32.50;;;;;8.07;63.52;101967.47;5043058;28;45497;-66
2022/12/02 00:16:03;;;;;;;;;50.00;33.50;;;;;8.00;63.80;101969.84;5033961;28;45348;-73
2022/12/02 00:18:30;;;;;;;;;41.75;33.00;;;;;7.96;64.14;101973.19;5041963;28;45461;-76
2022/12/02 00:20:56;;;;;;;;;43.75;36.00;;;;;7.94;64.20;101964.41;5047702;28;45644;-68
2022/12/02 00:23:22;;;;;;;;;47.50;33.75;;;;;7.97;64.48;101973.25;5039068;28;46013;-73
2022/12/02 00:25:50;;;;;;;;;41.50;31.75;;;;;7.97;64.34;101964.50;5059629;28;46136;-69
2022/12/02 00:28:16;;;;;;;;;41.00;26.00;;;;;8.00;64.58;101964.63;5041506;28;45442;-66
2022/12/02 00:30:43;;;;;;;;;32.25;26.75;;;;;8.01;64.55;101961.16;5055446;28;45402;-66
2022/12/02 00:33:09;;;;;;;;;41.50;29.00;;;;;8.04;64.92;101967.38;5047418;28;46149;-69
2022/12/02 00:35:35;;;;;;;;;37.75;28.25;;;;;8.01;64.95;101955.94;5025238;28;45586;-69
2022/12/02 00:38:00;;;;;;;;;43.50;29.25;;;;;8.06;64.23;101956.97;5035814;28;45546;-67
2022/12/02 00:40:26;;;;;;;;;41.00;25.50;;;;;7.98;64.49;101932.38;5036310;28;45494;-68
2022/12/02 00:42:52;;;;;;;;;30.75;25.25;;;;;8.07;64.64;101949.22;5052476;28;45598;-68
2022/12/02 00:48:02;;;;;;;;;38.50;31.25;;;;;8.02;64.65;101926.41;5050114;28;45429;-66
2022/12/02 00:50:28;;;;;;;;;37.75;31.25;;;;;8.09;64.55;101944.03;5036687;28;45464;-77
2022/12/02 00:52:54;;;;;;;;;44.75;32.75;;;;;8.06;65.03;101933.50;5053943;28;45513;-67
2022/12/02 00:55:20;;;;;;;;;44.00;35.00;;;;;8.06;64.66;101942.22;5028205;28;45589;-78
2022/12/02 00:57:45;;;;;;;;;45.00;35.00;;;;;8.06;64.85;101934.38;5040355;28;45437;-79
2022/12/02 01:00:11;;;;;;;;;37.00;28.50;;;;;8.07;64.95;101941.38;5039449;28;45694;-77
2022/12/02 01:02:37;;;;;;;;;46.50;34.75;;;;;8.05;64.88;101924.78;5041399;28;45616;-65
2022/12/02 01:05:03;;;;;;;;;37.25;30.50;;;;;8.10;65.21;101944.94;5047648;28;45466;-67
2022/12/02 01:07:29;;;;;;;;;47.75;37.75;;;;;7.85;65.35;101889.34;5035322;28;45307;-68
2022/12/02 01:09:54;;;;;;;;;33.50;28.50;;;;;8.06;64.94;101920.44;5041091;28;45639;-65
2022/12/02 01:12:20;;;;;;;;;38.75;32.25;;;;;8.16;64.45;101935.56;5045981;28;45829;-68
2022/12/02 01:14:46;;;;;;;;;39.00;29.00;;;;;8.05;65.05;101916.97;5035084;28;45920;-66
2022/12/02 01:17:11;;;;;;;;;38.75;31.00;;;;;8.15;65.76;101928.56;5023843;28;45339;-67
2022/12/02 01:19:37;;;;;;;;;36.25;28.25;;;;;8.08;65.18;101921.38;5024014;28;45765;-69
2022/12/02 01:22:02;;;;;;;;;42.50;32.25;;;;;8.07;64.96;101914.41;5034326;28;45706;-66
2022/12/02 01:24:28;;;;;;;;;34.25;29.50;;;;;8.18;64.99;101930.38;5053161;28;45489;-69
2022/12/02 01:26:53;;;;;;;;;36.75;32.00;;;;;8.17;65.09;101920.78;5039321;28;45593;-69
2022/12/02 01:29:19;;;;;;;;;35.25;26.75;;;;;8.20;65.24;101926.09;5040742;28;45512;-69
2022/12/02 01:31:44;;;;;;;;;37.75;32.50;;;;;8.11;64.91;101912.75;5036252;28;45514;-65
2022/12/02 01:34:10;;;;;;;;;42.75;32.75;;;;;8.15;64.85;101918.13;5050102;28;45576;-64
2022/12/02 01:36:35;;;;;;;;;45.50;35.00;;;;;8.06;64.59;101912.63;5034611;28;45457;-67
2022/12/02 01:39:01;;;;;;;;;42.00;31.50;;;;;8.20;64.81;101928.72;5034698;28;45393;-66
2022/12/02 01:41:27;;;;;;;;;46.25;35.25;;;;;8.14;64.80;101915.47;5043889;28;45605;-66
2022/12/02 01:43:52;;;;;;;;;44.50;36.00;;;;;8.15;64.85;101928.56;5032866;28;45658;-66
2022/12/02 01:46:18;;;;;;;;;34.75;26.25;;;;;8.06;64.81;101910.91;5034925;28;45509;-66
2022/12/02 01:48:44;;;;;;;;;30.50;29.25;;;;;8.02;65.10;101902.91;5033471;28;45560;-66
2022/12/02 01:51:10;;;;;;;;;46.00;36.25;;;;;8.17;64.81;101929.50;5033967;28;45575;-67
2022/12/02 01:53:36;;;;;;;;;43.25;30.25;;;;;8.21;65.12;101939.22;5051807;28;45459;-71
2022/12/02 01:56:02;;;;;;;;;45.00;34.50;;;;;8.19;65.07;101940.00;5025398;28;45359;-67
2022/12/02 01:58:30;;;;;;;;;42.25;33.75;;;;;8.11;64.95;101926.69;5046303;28;45761;-67
2022/12/02 02:00:56;;;;;;;;;49.25;38.25;;;;;8.20;64.88;101936.53;5049060;28;45472;-66
2022/12/02 02:03:23;;;;;;;;;44.00;37.00;;;;;8.19;64.99;101938.28;5036967;28;45805;-65
2022/12/02 02:05:50;;;;;;;;;50.50;34.25;;;;;8.19;64.82;101937.41;5055326;28;45576;-67
2022/12/02 02:08:17;;;;;;;;;42.25;34.50;;;;;8.12;65.00;101928.47;5041045;28;45911;-67
2022/12/02 02:10:44;;;;;;;;;39.75;33.25;;;;;8.04;64.82;101910.00;5051413;28;45542;-66
2022/12/02 02:13:13;;;;;;;;;46.75;36.50;;;;;8.14;64.98;101933.72;5045994;28;45462;-69
2022/12/02 02:15:40;;;;;;;;;47.50;37.75;;;;;8.10;65.10;101929.28;5046095;28;45673;-68
2022/12/02 02:18:06;;;;;;;;;49.25;38.00;;;;;8.05;65.05;101924.78;5034279;28;45438;-70
2022/12/02 02:20:33;;;;;;;;;46.00;34.25;;;;;8.17;64.73;101933.84;5025434;28;47234;-69
2022/12/02 02:23:04;;;;;;;;;48.25;37.75;;;;;8.16;64.77;101919.91;5033987;28;45601;-66
2022/12/02 02:25:42;;;;;;;;;38.25;29.50;;;;;8.04;64.98;101891.72;5051191;28;45510;-65
2022/12/02 02:28:08;;;;;;;;;45.25;36.75;;;;;8.12;64.97;101909.34;5053390;28;45615;-73
2022/12/02 02:30:35;;;;;;;;;46.75;34.50;;;;;8.12;65.02;101911.94;5051257;28;45547;-65
2022/12/02 02:33:04;;;;;;;;;51.50;36.75;;;;;8.08;64.99;101919.66;5053327;28;45966;-66
2022/12/02 02:35:32;;;;;;;;;46.75;35.00;;;;;8.01;65.08;101902.03;5056265;28;45322;-65
2022/12/02 02:37:57;;;;;;;;;50.75;33.50;;;;;8.04;65.17;101896.03;5039902;28;45533;-67
2022/12/02 02:40:25;;;;;;;;;53.25;38.50;;;;;8.10;64.71;101903.19;5037239;28;47648;-67
2022/12/02 02:42:54;;;;;;;;;48.50;34.00;;;;;8.13;64.50;101913.72;5036928;28;45523;-79
2022/12/02 02:45:24;;;;;;;;;56.75;39.50;;;;;8.07;65.22;101904.84;5032891;28;45423;-66
2022/12/02 02:47:50;;;;;;;;;46.00;36.50;;;;;8.05;65.14;101888.25;5040765;28;45472;-69
2022/12/02 02:50:17;;;;;;;;;52.25;36.00;;;;;8.10;65.29;101897.97;5056294;28;46269;-65
2022/12/02 02:52:43;;;;;;;;;46.00;34.25;;;;;8.05;64.95;101887.38;5055601;28;45585;-74
2022/12/02 02:55:15;;;;;;;;;47.75;34.75;;;;;8.11;64.97;101894.50;5056930;28;45398;-71
2022/12/02 02:57:41;;;;;;;;;43.75;32.50;;;;;8.06;64.77;101882.19;5055965;28;45589;-67
2022/12/02 03:00:07;;;;;;;;;52.75;39.50;;;;;8.07;64.73;101883.97;5053529;28;46148;-67
2022/12/02 03:02:32;;;;;;;;;37.75;30.50;;;;;8.13;64.54;101893.72;5051723;28;45910;-66
2022/12/02 03:04:58;;;;;;;;;39.75;32.00;;;;;8.11;65.00;101884.06;5039294;28;45423;-70
2022/12/02 03:07:24;;;;;;;;;43.00;34.50;;;;;8.13;64.57;101887.59;5037966;28;45506;-70
2022/12/02 03:09:50;;;;;;;;;42.00;33.25;;;;;8.06;64.07;101868.25;5054020;28;45429;-72
2022/12/02 03:12:16;;;;;;;;;47.25;33.75;;;;;8.17;64.39;101884.25;5044708;28;45567;-65
2022/12/02 03:14:43;;;;;;;;;49.50;39.00;;;;;8.16;64.48;101885.09;5048133;28;45390;-65
2022/12/02 03:17:09;;;;;;;;;50.50;38.75;;;;;7.95;64.66;101857.53;5019168;28;45417;-71
2022/12/02 03:19:36;;;;;;;;;45.00;35.25;;;;;8.10;64.43;101877.09;5033546;28;45496;-73
2022/12/02 03:22:02;;;;;;;;;46.50;38.00;;;;;8.01;64.32;101857.69;5033598;28;45397;-66
2022/12/02 03:24:30;;;;;;;;;41.75;31.00;;;;;8.09;64.55;101878.78;5026584;28;45353;-70
2022/12/02 03:26:56;;;;;;;;;49.75;37.50;;;;;8.08;64.48;101872.69;5036546;28;45796;-71
2022/12/02 03:29:22;;;;;;;;;49.50;36.00;;;;;8.08;64.91;101877.91;5033646;28;46140;-69
2022/12/02 03:31:48;;;;;;;;;48.25;37.00;;;;;8.06;64.63;101874.38;5042502;28;45430;-66
2022/12/02 03:34:14;;;;;;;;;40.25;34.00;;;;;8.10;64.53;101877.09;5027651;28;45562;-66
2022/12/02 03:36:40;;;;;;;;;44.25;32.50;;;;;8.04;64.43;101863.03;5044724;28;45347;-68
2022/12/02 03:39:07;;;;;;;;;38.00;30.75;;;;;8.05;64.55;101856.06;5038872;28;46953;-72
2022/12/02 03:41:33;;;;;;;;;45.75;36.25;;;;;7.96;64.08;101832.31;5057230;28;45596;-70
2022/12/02 03:43:58;;;;;;;;;40.75;32.75;;;;;8.00;64.49;101842.00;5043290;28;45564;-70
2022/12/02 03:46:26;;;;;;;;;37.25;29.75;;;;;8.06;64.41;101858.72;5033901;28;46759;-78
2022/12/02 03:48:52;;;;;;;;;33.25;28.50;;;;;8.08;64.38;101864.84;5029066;28;46622;-76
2022/12/02 03:51:18;;;;;;;;;49.75;38.00;;;;;8.06;64.77;101850.88;5042994;28;45451;-74
2022/12/02 03:53:44;;;;;;;;;42.25;35.00;;;;;8.08;64.39;101856.16;5051647;28;46776;-76
2022/12/02 03:56:10;;;;;;;;;44.50;32.50;;;;;8.08;64.56;101857.03;5051399;28;45490;-68
2022/12/02 03:58:46;;;;;;;;;46.25;34.50;;;;;8.05;63.91;101841.28;5049493;28;46262;-71
2022/12/02 04:01:12;;;;;;;;;41.25;32.50;;;;;7.95;64.27;101836.66;5038443;28;45528;-70
2022/12/02 04:03:37;;;;;;;;;42.50;33.00;;;;;7.91;64.26;101824.34;5041030;28;45402;-73
2022/12/02 04:06:03;;;;;;;;;36.50;30.75;;;;;8.00;64.16;101835.06;5032735;28;45703;-70
2022/12/02 04:08:29;;;;;;;;;45.75;36.75;;;;;8.02;64.24;101833.38;5025286;28;46859;-70
2022/12/02 04:10:55;;;;;;;;;47.25;33.75;;;;;7.92;64.04;101846.97;5034346;28;45621;-69
2022/12/02 04:13:21;;;;;;;;;54.75;37.75;;;;;7.82;64.60;101840.59;5048046;28;45647;-67
2022/12/02 04:15:46;;;;;;;;;47.00;33.75;;;;;7.71;64.35;101804.56;5049998;28;45484;-72
2022/12/02 04:18:12;;;;;;;;;50.00;38.25;;;;;7.88;64.32;101836.38;5034575;28;46613;-71
2022/12/02 04:20:37;;;;;;;;;48.25;38.75;;;;;7.80;64.69;101820.50;5043317;28;45664;-71
2022/12/02 04:23:03;;;;;;;;;51.00;38.00;;;;;7.75;64.58;101806.44;5037287;28;45380;-76
2022/12/02 04:25:29;;;;;;;;;40.00;31.50;;;;;7.90;64.71;101816.47;5029063;28;45406;-73
2022/12/02 04:27:54;;;;;;;;;43.00;34.25;;;;;7.90;64.50;101819.97;5054167;28;45582;-66
2022/12/02 04:30:20;;;;;;;;;46.25;37.50;;;;;7.84;64.10;101819.78;5036461;28;45561;-65
2022/12/02 04:32:45;;;;;;;;;51.50;35.75;;;;;7.78;64.94;101815.28;5032787;28;45371;-76
2022/12/02 04:35:11;;;;;;;;;48.25;37.25;;;;;7.83;64.97;101816.28;5036991;28;45538;-74
2022/12/02 04:37:36;;;;;;;;;45.00;35.00;;;;;7.80;64.86;101807.47;5036550;28;46545;-75
2022/12/02 04:40:03;;;;;;;;;42.75;31.75;;;;;7.89;64.55;101820.78;5040497;28;45430;-74
2022/12/02 04:42:28;;;;;;;;;30.50;23.50;;;;;7.83;64.68;101808.47;5036754;28;45594;-68
2022/12/02 04:44:54;;;;;;;;;37.25;32.00;;;;;7.96;64.43;101835.78;5041813;28;45642;-69
2022/12/02 04:47:19;;;;;;;;;39.25;29.75;;;;;7.91;64.28;101823.47;5050039;28;46570;-66
2022/12/02 04:49:45;;;;;;;;;41.00;35.00;;;;;7.97;64.31;101813.19;5051154;28;45442;-67
2022/12/02 04:52:11;;;;;;;;;34.00;32.25;;;;;7.93;64.20;101809.63;5019085;28;45447;-71
2022/12/02 04:54:36;;;;;;;;;46.50;35.25;;;;;8.01;64.16;101815.06;5035639;28;45440;-67
2022/12/02 04:57:02;;;;;;;;;48.50;37.25;;;;;7.99;64.34;101806.31;5043377;28;45644;-68
2022/12/02 04:59:27;;;;;;;;;49.75;38.75;;;;;7.83;64.06;101778.88;5036553;28;45670;-69
2022/12/02 05:01:53;;;;;;;;;44.00;35.50;;;;;7.92;64.66;101794.78;5049681;28;45841;-66
2022/12/02 05:04:18;;;;;;;;;46.00;34.75;;;;;7.98;64.35;101800.22;5038247;28;45430;-68
2022/12/02 05:06:44;;;;;;;;;43.50;36.00;;;;;7.98;64.30;101805.44;5036896;28;45720;-68
2022/12/02 05:09:09;;;;;;;;;49.00;35.50;;;;;7.96;64.21;101801.00;5035249;28;45395;-68
2022/12/02 05:11:35;;;;;;;;;40.75;33.25;;;;;7.94;64.22;101800.94;5045403;28;46153;-67
2022/12/02 05:14:00;;;;;;;;;51.25;38.00;;;;;7.88;64.23;101805.09;5039894;28;45399;-65
2022/12/02 05:16:26;;;;;;;;;47.50;35.25;;;;;7.88;64.54;101798.19;5035037;28;45950;-67
2022/12/02 05:18:51;;;;;;;;;54.00;37.00;;;;;7.79;64.56;101783.13;5035398;28;45509;-73
2022/12/02 05:21:17;;;;;;;;;46.00;39.50;;;;;7.89;64.57;101796.44;5053866;28;45435;-66
2022/12/02 05:23:42;;;;;;;;;46.75;37.00;;;;;7.78;64.97;101788.28;5026095;28;45485;-74
2022/12/02 05:26:08;;;;;;;;;51.75;40.25;;;;;7.73;64.88;101787.25;5020548;28;47804;-70
2022/12/02 05:28:33;;;;;;;;;53.25;38.00;;;;;7.74;65.28;101792.53;5030343;28;45475;-66
2022/12/02 05:30:59;;;;;;;;;52.25;37.25;;;;;7.72;65.24;101786.38;5039598;28;45406;-72
2022/12/02 05:33:24;;;;;;;;;50.00;38.50;;;;;7.71;65.24;101774.19;5025914;28;45510;-66
2022/12/02 05:35:50;;;;;;;;;45.00;34.75;;;;;7.79;65.39;101787.47;5053536;28;46053;-65
2022/12/02 05:38:16;;;;;;;;;50.00;39.50;;;;;7.78;64.94;101775.25;5038062;28;45429;-68
2022/12/02 05:40:41;;;;;;;;;44.75;36.00;;;;;7.79;65.00;101769.22;5046165;28;45785;-67
2022/12/02 05:43:19;;;;;;;;;44.75;35.00;;;;;7.81;64.81;101751.88;5033476;28;45653;-67
2022/12/02 05:45:44;;;;;;;;;43.75;37.50;;;;;7.82;64.78;101756.25;5037043;28;45375;-67
2022/12/02 05:48:12;;;;;;;;;47.00;37.25;;;;;7.95;64.78;101773.13;5037303;28;46231;-66
2022/12/02 05:50:39;;;;;;;;;52.00;34.50;;;;;7.89;64.42;101763.41;5039288;28;46008;-68
2022/12/02 05:53:06;;;;;;;;;53.50;39.00;;;;;7.95;64.63;101770.53;5034094;28;45399;-67
2022/12/02 05:55:35;;;;;;;;;52.00;38.50;;;;;7.75;64.45;101728.22;5034897;28;45335;-66
2022/12/02 05:58:02;;;;;;;;;59.50;42.25;;;;;7.78;64.17;101744.84;5022215;28;45431;-67
2022/12/02 06:00:28;;;;;;;;;59.00;44.00;;;;;7.81;64.20;101765.81;5024565;28;45497;-65
2022/12/02 06:03:01;;;;;;;;;57.50;38.00;;;;;7.73;64.81;101766.41;5051200;28;45734;-70
2022/12/02 06:05:32;;;;;;;;;51.75;38.50;;;;;7.69;64.59;101770.66;5034701;28;46169;-66
2022/12/02 06:08:09;;;;;;;;;57.25;42.00;;;;;7.63;64.70;101754.81;5020714;28;45408;-67
2022/12/02 06:10:37;;;;;;;;;59.75;41.25;;;;;7.55;64.97;101749.38;5039163;28;45539;-67
2022/12/02 06:13:22;;;;;;;;;48.75;41.00;;;;;7.46;65.17;101743.88;5036616;28;45584;-68
2022/12/02 06:15:49;;;;;;;;;57.50;44.00;;;;;7.43;65.41;101749.00;5044427;28;46444;-66
2022/12/02 06:18:17;;;;;;;;;57.50;43.50;;;;;7.31;65.76;101753.81;5033786;28;45461;-67
2022/12/02 06:20:45;;;;;;;;;51.25;39.50;;;;;7.36;66.08;101760.94;5029483;28;45455;-65
2022/12/02 06:23:17;;;;;;;;;58.25;43.75;;;;;7.25;66.62;101751.03;5034009;28;45821;-67
2022/12/02 06:25:43;;;;;;;;;56.25;42.25;;;;;7.22;66.48;101733.56;5033834;28;45737;-67
2022/12/02 06:28:28;;;;;;;;;47.75;39.25;;;;;7.23;66.32;101733.59;5046985;28;46408;-69
2022/12/02 06:30:57;;;;;;;;;42.75;35.00;;;;;7.39;65.91;101742.78;5042117;28;45431;-77
2022/12/02 06:33:35;;;;;;;;;50.75;38.00;;;;;7.54;66.45;101755.41;5053560;28;45886;-67
2022/12/02 06:36:11;;;;;;;;;44.50;34.50;;;;;7.60;65.80;101746.91;5051948;28;46122;-66
2022/12/02 06:38:44;;;;;;;;;35.25;33.00;;;;;7.57;65.72;101732.06;5053207;28;45746;-74
2022/12/02 06:41:35;;;;;;;;;54.00;43.00;;;;;7.71;65.62;101747.22;5044778;28;45461;-67
2022/12/02 06:47:19;;;;;;;;;66.50;47.75;;;;;7.58;65.71;101756.41;5045204;28;45781;-67
2022/12/02 06:49:45;;;;;;;;;71.50;48.75;;;;;7.41;66.01;101732.41;5044257;28;45446;-67
2022/12/02 06:52:21;;;;;;;;;49.50;39.25;;;;;7.43;66.54;101746.38;5040024;28;45364;-68
2022/12/02 06:54:47;;;;;;;;;61.00;43.75;;;;;7.41;66.19;101742.84;5052658;28;45335;-66
2022/12/02 06:57:17;;;;;;;;;63.50;43.00;;;;;7.37;66.58;101733.16;5045392;28;46098;-67
2022/12/02 06:59:47;;;;;;;;;50.50;41.50;;;;;7.48;66.64;101746.53;5047654;28;45564;-73
2022/12/02 07:02:27;;;;;;;;;63.75;46.50;;;;;7.49;66.51;101732.66;5055188;28;45538;-72
2022/12/02 07:04:54;;;;;;;;;53.75;41.75;;;;;7.56;66.37;101726.78;5046647;28;45476;-71
2022/12/02 07:07:27;;;;;;;;;55.75;39.75;;;;;7.55;66.28;101723.31;5039222;28;45419;-67
2022/12/02 07:10:16;;;;;;;;;58.00;43.25;;;;;7.65;66.50;101746.19;5033886;28;45504;-67
2022/12/02 07:12:47;;;;;;;;;57.75;44.25;;;;;7.59;66.01;101734.69;5021679;28;45827;-66
2022/12/02 07:15:26;;;;;;;;;56.25;41.50;;;;;7.62;66.74;101747.84;5052057;28;45370;-67
2022/12/02 07:18:00;;;;;;;;;60.50;45.25;;;;;7.63;66.52;101739.16;5041323;28;46104;-67
2022/12/02 07:20:29;;;;;;;;;56.25;43.25;;;;;7.63;66.83;101733.94;5035555;28;45594;-67
2022/12/02 07:23:16;;;;;;;;;47.50;38.25;;;;;7.63;66.86;101740.03;5043639;28;45453;-74
2022/12/02 07:25:55;;;;;;;;;54.25;38.50;;;;;7.68;66.55;101740.19;5031389;28;45614;-66
2022/12/02 07:28:35;;;;;;;;;54.50;39.75;;;;;7.61;66.47;101726.06;5044734;28;45481;-70
2022/12/02 07:31:12;;;;;;;;;48.75;37.25;;;;;7.69;66.54;101731.53;5036826;28;45634;-65
2022/12/02 07:33:37;;;;;;;;;50.50;37.25;;;;;7.76;66.66;101736.09;5051736;28;45478;-67
2022/12/02 07:36:03;;;;;;;;;57.00;43.25;;;;;7.81;66.49;101738.84;5027683;28;45585;-65
2022/12/02 07:38:29;;;;;;;;;60.00;45.50;;;;;7.82;66.39;101731.03;5029641;28;47672;-71
2022/12/02 07:40:54;;;;;;;;;57.00;43.25;;;;;7.60;66.51;101686.94;5044661;28;45507;-67
2022/12/02 07:43:19;;;;;;;;;61.75;45.25;;;;;7.74;66.87;101724.72;5047905;28;45387;-69
2022/12/02 07:45:45;;;;;;;;;59.00;43.25;;;;;7.64;67.01;101715.75;5037221;28;45572;-66
2022/12/02 07:48:11;;;;;;;;;50.25;37.00;;;;;7.69;67.26;101730.63;5025788;28;47626;-69
2022/12/02 07:50:37;;;;;;;;;54.50;38.75;;;;;7.74;67.42;101736.91;5053497;28;45648;-72
2022/12/02 07:53:03;;;;;;;;;55.50;41.50;;;;;7.72;67.49;101728.13;5035477;28;45598;-67
2022/12/02 07:55:28;;;;;;;;;55.00;43.75;;;;;7.73;67.99;101738.59;5045468;28;45340;-64
2022/12/02 07:57:54;;;;;;;;;56.00;41.75;;;;;7.63;67.95;101726.13;5038984;28;46042;-67
2022/12/02 08:00:20;;;;;;;;;59.75;41.50;;;;;7.56;68.03;101727.66;5040552;28;45708;-66
2022/12/02 08:02:46;;;;;;;;;60.75;41.75;;;;;7.55;68.42;101728.50;5054744;28;45980;-69
2022/12/02 08:05:11;;;;;;;;;53.50;39.75;;;;;7.60;68.15;101732.13;5044801;28;45517;-69
2022/12/02 08:07:37;;;;;;;;;48.25;36.75;;;;;7.60;68.21;101728.66;5041930;28;45887;-66
2022/12/02 08:10:04;;;;;;;;;54.50;42.50;;;;;7.71;68.43;101742.00;5035992;28;45651;-66
2022/12/02 08:12:29;;;;;;;;;44.75;37.00;;;;;7.76;67.96;101743.00;5035514;28;45431;-67
2022/12/02 08:14:55;;;;;;;;;60.00;42.75;;;;;7.61;68.15;101714.75;5036598;28;45651;-66
2022/12/02 08:17:20;;;;;;;;;58.50;42.50;;;;;7.78;68.04;101741.34;5039878;28;45829;-67
2022/12/02 08:19:46;;;;;;;;;52.75;40.25;;;;;7.78;68.23;101724.00;5047221;28;45973;-66
2022/12/02 08:22:11;;;;;;;;;61.00;46.00;;;;;7.66;67.81;101702.75;5054815;28;45407;-66
2022/12/02 08:24:37;;;;;;;;;61.00;43.75;;;;;7.66;68.47;101723.59;5041319;28;45395;-68
2022/12/02 08:27:03;;;;;;;;;54.25;37.00;;;;;7.55;68.24;101704.19;5032955;28;46327;-66
2022/12/02 08:29:29;;;;;;;;;60.50;45.00;;;;;7.73;68.42;101740.31;5038631;28;46089;-66
2022/12/02 08:31:55;;;;;;;;;53.25;39.00;;;;;7.68;68.27;101734.97;5039327;28;45438;-73
2022/12/02 08:34:20;;;;;;;;;54.25;40.75;;;;;7.73;68.10;101738.59;5047369;28;45455;-68
2022/12/02 08:36:46;;;;;;;;;57.25;42.75;;;;;7.80;67.79;101734.44;5036694;28;45578;-68
2022/12/02 08:39:11;;;;;;;;;53.25;39.50;;;;;7.76;67.64;101738.69;5035005;28;45373;-67
2022/12/02 08:41:38;;;;;;;;;61.75;48.50;;;;;7.72;67.57;101722.91;5051678;28;45537;-68
2022/12/02 08:44:04;;;;;;;;;57.50;43.50;;;;;7.84;67.16;101747.63;5049086;28;45441;-68
2022/12/02 08:46:31;;;;;;;;;58.75;44.25;;;;;7.81;67.27;101747.53;5035770;28;46401;-67
2022/12/02 08:48:57;;;;;;;;;57.50;40.50;;;;;7.80;67.13;101735.31;5041365;28;45555;-68
2022/12/02 08:51:23;;;;;;;;;59.75;44.50;;;;;7.86;67.17;101747.69;5040435;28;45474;-68
2022/12/02 08:53:48;;;;;;;;;55.75;40.25;;;;;7.90;66.97;101744.34;5036086;28;45421;-68
2022/12/02 08:56:14;;;;;;;;;60.00;40.75;;;;;7.73;66.92;101711.63;5035473;28;46529;-66
2022/12/02 08:58:39;;;;;;;;;54.25;39.75;;;;;7.93;66.82;101747.03;5034796;28;45428;-70
2022/12/02 09:01:05;;;;;;;;;59.75;39.00;;;;;7.84;66.77;101724.16;5041859;28;45597;-69
2022/12/02 09:03:32;;;;;;;;;56.50;43.00;;;;;7.96;66.60;101738.41;5046662;28;45528;-66
2022/12/02 09:05:57;;;;;;;;;50.25;38.50;;;;;7.98;66.57;101728.88;5035085;28;45790;-68
2022/12/02 09:08:23;;;;;;;;;59.50;43.25;;;;;7.98;66.57;101715.84;5035070;28;45557;-71
2022/12/02 09:10:49;;;;;;;;;68.50;48.00;;;;;7.88;66.40;101721.63;5039487;28;45437;-67
2022/12/02 09:13:15;;;;;;;;;57.75;43.50;;;;;7.88;66.56;101724.22;5045795;28;45470;-67
2022/12/02 09:15:40;;;;;;;;;56.50;44.25;;;;;7.81;66.87;101717.97;5031144;28;47505;-67
2022/12/02 09:18:06;;;;;;;;;54.25;40.50;;;;;7.84;67.07;101720.66;5034958;28;45535;-71
2022/12/02 09:20:31;;;;;;;;;52.50;41.25;;;;;7.83;67.16;101714.56;5030074;28;45542;-67
2022/12/02 09:22:57;;;;;;;;;65.25;47.75;;;;;7.88;67.15;101729.44;5035345;28;45568;-69
2022/12/02 09:25:23;;;;;;;;;64.25;46.50;;;;;7.84;67.10;101738.91;5040516;28;46335;-69
2022/12/02 09:27:48;;;;;;;;;54.25;41.50;;;;;7.84;67.01;101725.88;5037724;28;45249;-67
2022/12/02 09:30:14;;;;;;;;;58.25;45.50;;;;;7.89;66.74;101726.88;5025597;28;45514;-66
2022/12/02 09:32:40;;;;;;;;;56.25;44.00;;;;;7.92;66.81;101718.28;5034718;28;45616;-73
2022/12/02 09:35:06;;;;;;;;;67.00;48.00;;;;;7.85;66.45;101706.78;5034212;28;46022;-68
2022/12/02 09:37:32;;;;;;;;;61.75;46.75;;;;;7.95;66.21;101726.16;5047195;28;45441;-66
2022/12/02 09:39:58;;;;;;;;;67.75;49.00;;;;;7.84;66.44;101723.28;5035084;28;45746;-70
2022/12/02 09:42:25;;;;;;;;;65.50;50.25;;;;;7.62;66.77;101707.00;5051759;28;45493;-67
2022/12/02 09:44:52;;;;;;;;;65.50;49.00;;;;;7.58;67.76;101710.34;5037741;28;46109;-68
2022/12/02 09:47:18;;;;;;;;;53.25;39.75;;;;;7.62;67.04;101707.00;5029641;28;45858;-66
2022/12/02 09:49:45;;;;;;;;;61.50;44.00;;;;;7.70;66.91;101709.81;5051523;28;45357;-67
2022/12/02 09:52:15;;;;;;;;;60.75;46.25;;;;;7.78;66.99;101713.56;5034863;28;45524;-68
2022/12/02 09:54:42;;;;;;;;;61.25;45.25;;;;;7.83;66.67;101713.66;5033911;28;45677;-67
2022/12/02 09:57:13;;;;;;;;;64.75;50.00;;;;;7.78;66.55;101700.53;5026506;28;45487;-66
2022/12/02 09:59:39;;;;;;;;;62.00;47.00;;;;;7.87;66.29;101718.13;5045448;28;45418;-67
2022/12/02 10:02:21;;;;;;;;;66.50;49.50;;;;;7.83;66.17;101711.06;5031344;28;45629;-71
2022/12/02 10:04:47;;;;;;;;;59.00;45.00;;;;;7.74;66.50;101696.03;5034612;28;46321;-66
2022/12/02 10:07:12;;;;;;;;;61.75;46.50;;;;;7.82;66.47;101706.69;5034050;28;45801;-67
2022/12/02 10:09:39;;;;;;;;;59.25;42.75;;;;;7.84;66.49;101710.22;5037649;28;45446;-66
2022/12/02 10:12:05;;;;;;;;;61.75;45.50;;;;;7.78;66.41;101678.75;5034153;28;45579;-68
2022/12/02 10:14:30;;;;;;;;;60.25;46.00;;;;;7.82;66.20;101678.00;5033798;28;45501;-67
2022/12/02 10:16:56;;;;;;;;;69.25;49.25;;;;;7.94;66.28;101693.13;5026380;28;45428;-67
2022/12/02 10:19:22;;;;;;;;;66.50;49.50;;;;;7.87;65.97;101665.97;5038272;28;45338;-68
2022/12/02 10:21:47;;;;;;;;;64.50;48.00;;;;;7.95;66.15;101682.72;5049176;28;45399;-70
2022/12/02 10:24:13;;;;;;;;;61.75;44.75;;;;;7.98;66.19;101685.41;5034155;28;47420;-66
2022/12/02 10:26:49;;;;;;;;;59.25;44.00;;;;;7.97;66.32;101675.84;5027008;28;45597;-67
2022/12/02 10:29:27;;;;;;;;;65.00;48.00;;;;;7.98;66.10;101684.53;5053229;28;45835;-67
2022/12/02 10:32:28;;;;;;;;;64.00;47.75;;;;;7.92;66.34;101660.88;5024850;28;45641;-67
2022/12/02 10:35:11;;;;;;;;;62.75;46.00;;;;;7.99;65.80;101660.22;5033998;28;45520;-72
2022/12/02 10:37:37;;;;;;;;;53.00;29.25;;;;;8.11;65.71;101673.56;5034154;28;45598;-77
2022/12/02 10:40:09;;;;;;;;;61.00;44.25;;;;;8.14;65.76;101676.28;5022806;28;45583;-72
2022/12/02 10:42:36;;;;;;;;;59.00;39.00;;;;;8.15;65.21;101670.22;5036757;28;45431;-72
2022/12/02 10:45:22;;;;;;;;;61.75;46.25;;;;;8.20;65.31;101666.00;5033661;28;46577;-73
2022/12/02 10:47:49;;;;;;;;;67.75;53.25;;;;;8.15;64.84;101659.78;5045964;28;45571;-72
2022/12/02 10:50:19;;;;;;;;;60.75;47.50;;;;;8.20;64.82;101663.38;5050786;28;45344;-73
2022/12/02 10:52:47;;;;;;;;;64.00;46.75;;;;;8.20;65.21;101655.56;5034526;28;45532;-69
2022/12/02 10:55:16;;;;;;;;;57.50;42.50;;;;;8.20;65.13;101639.03;5032938;28;47955;-68
2022/12/02 10:57:43;;;;;;;;;43.75;39.00;;;;;8.22;65.03;101647.78;5048054;28;45492;-66
2022/12/02 11:00:21;;;;;;;;;72.00;49.75;;;;;8.15;64.88;101632.81;5046298;28;45557;-66
2022/12/02 11:02:51;;;;;;;;;59.25;43.25;;;;;8.17;64.34;101639.84;5038264;28;45469;-68
2022/12/02 11:05:23;;;;;;;;;63.25;44.25;;;;;8.10;64.62;101617.03;5034878;28;45417;-65
2022/12/02 11:08:03;;;;;;;;;70.00;52.50;;;;;8.15;64.97;101643.25;5039944;28;45434;-67
2022/12/02 11:10:41;;;;;;;;;74.25;54.50;;;;;8.07;64.97;101628.28;5043522;28;45713;-67
2022/12/02 11:13:29;;;;;;;;;67.25;49.50;;;;;8.08;65.04;101635.25;5038000;28;45433;-69
2022/12/02 11:16:15;;;;;;;;;68.50;45.75;;;;;7.99;65.04;101626.28;5035811;28;45988;-66
2022/12/02 11:18:40;;;;;;;;;63.75;45.75;;;;;8.08;65.19;101639.59;5015332;28;45722;-67
2022/12/02 11:21:06;;;;;;;;;60.75;46.50;;;;;8.07;65.04;101627.41;5041601;28;45662;-67
2022/12/02 11:23:33;;;;;;;;;69.75;47.50;;;;;8.00;65.12;101617.63;5040378;28;45483;-66
2022/12/02 11:26:09;;;;;;;;;67.50;46.75;;;;;8.07;64.83;101623.06;5040833;28;46680;-66